sensor_id;sensor_type;location;lat;lon;timestamp;temperature;humidity
41060;DHT22;26811;53.160;8.202;2022-07-23T00:03:35;16.10;99.90
41060;DHT22;26811;53.160;8.202;2022-07-23T00:08:35;16.10;99.90
41060;DHT22;26811;53.160;8.202;2022-07-23T00:13:36;16.00;99.90
41060;DHT22;26811;53.160;8.202;2022-07-23T00:18:37;15.90;99.90
41060;DHT22;26811;53.160;8.202;2022-07-23T00:23:37;15.80;99.90
41060;DHT22;26811;53.160;8.202;2022-07-23T00:28:38;15.70;99.90
41060;DHT22;26811;53.160;8.202;2022-07-23T00:33:38;15.80;99.90
41060;DHT22;26811;53.160;8.202;2022-07-23T00:38:39;15.80;99.90
41060;DHT22;26811;53.160;8.202;2022-07-23T00:43:39;15.80;99.90
41060;DHT22;26811;53.160;8.202;2022-07-23T00:48:40;15.80;99.90
41060;DHT22;26811;53.160;8.202;2022-07-23T00:53:41;15.70;99.90
41060;DHT22;26811;53.160;8.202;2022-07-23T00:58:42;15.70;99.90
41060;DHT22;26811;53.160;8.202;2022-07-23T01:03:43;15.60;99.90
41060;DHT22;26811;53.160;8.202;2022-07-23T01:08:44;15.60;99.90
41060;DHT22;26811;53.160;8.202;2022-07-23T01:13:45;15.60;99.90
41060;DHT22;26811;53.160;8.202;2022-07-23T01:18:45;15.60;99.90
41060;DHT22;26811;53.160;8.202;2022-07-23T01:23:46;15.60;99.90
41060;DHT22;26811;53.160;8.202;2022-07-23T01:28:47;15.60;99.90
41060;DHT22;26811;53.160;8.202;2022-07-23T01:33:47;15.60;99.90
41060;DHT22;26811;53.160;8.202;2022-07-23T01:38:48;15.60;99.90
41060;DHT22;26811;53.160;8.202;2022-07-23T01:43:48;15.50;99.90
41060;DHT22;26811;53.160;8.202;2022-07-23T01:48:49;15.60;99.90
41060;DHT22;26811;53.160;8.202;2022-07-23T01:53:50;15.50;99.90
41060;DHT22;26811;53.160;8.202;2022-07-23T01:58:50;15.50;99.90
41060;DHT22;26811;53.160;8.202;2022-07-23T02:03:51;15.40;99.90
41060;DHT22;26811;53.160;8.202;2022-07-23T02:08:51;15.40;99.90
41060;DHT22;26811;53.160;8.202;2022-07-23T02:13:52;15.30;99.90
41060;DHT22;26811;53.160;8.202;2022-07-23T02:18:52;15.30;99.90
41060;DHT22;26811;53.160;8.202;2022-07-23T02:23:53;15.20;99.90
41060;DHT22;26811;53.160;8.202;2022-07-23T02:28:53;15.20;99.90
41060;DHT22;26811;53.160;8.202;2022-07-23T02:33:54;15.10;99.90
41060;DHT22;26811;53.160;8.202;2022-07-23T02:38:54;15.10;99.90
41060;DHT22;26811;53.160;8.202;2022-07-23T02:43:55;15.10;99.90
41060;DHT22;26811;53.160;8.202;2022-07-23T02:48:56;15.10;99.90
41060;DHT22;26811;53.160;8.202;2022-07-23T02:53:56;15.10;99.90
41060;DHT22;26811;53.160;8.202;2022-07-23T02:58:57;15.00;99.90
41060;DHT22;26811;53.160;8.202;2022-07-23T03:03:57;14.90;99.90
41060;DHT22;26811;53.160;8.202;2022-07-23T03:08:58;14.80;99.90
41060;DHT22;26811;53.160;8.202;2022-07-23T03:13:58;14.80;99.90
41060;DHT22;26811;53.160;8.202;2022-07-23T03:18:59;14.80;99.90
41060;DHT22;26811;53.160;8.202;2022-07-23T03:24:00;14.70;99.90
41060;DHT22;26811;53.160;8.202;2022-07-23T03:29:01;14.70;99.90
41060;DHT22;26811;53.160;8.202;2022-07-23T03:34:03;14.70;99.90
41060;DHT22;26811;53.160;8.202;2022-07-23T03:39:04;14.70;99.90
41060;DHT22;26811;53.160;8.202;2022-07-23T03:44:04;14.70;99.90
41060;DHT22;26811;53.160;8.202;2022-07-23T03:49:05;14.70;99.90
41060;DHT22;26811;53.160;8.202;2022-07-23T03:54:05;14.60;99.90
41060;DHT22;26811;53.160;8.202;2022-07-23T03:59:06;14.40;99.90
41060;DHT22;26811;53.160;8.202;2022-07-23T04:04:06;14.30;99.90
41060;DHT22;26811;53.160;8.202;2022-07-23T04:09:08;14.20;99.90
41060;DHT22;26811;53.160;8.202;2022-07-23T04:14:09;14.20;99.90
41060;DHT22;26811;53.160;8.202;2022-07-23T04:19:09;14.10;99.90
41060;DHT22;26811;53.160;8.202;2022-07-23T04:24:10;14.10;99.90
41060;DHT22;26811;53.160;8.202;2022-07-23T04:29:10;14.10;99.90
41060;DHT22;26811;53.160;8.202;2022-07-23T04:34:11;14.10;99.90
41060;DHT22;26811;53.160;8.202;2022-07-23T04:39:12;14.10;99.90
41060;DHT22;26811;53.160;8.202;2022-07-23T04:44:12;14.20;99.90
41060;DHT22;26811;53.160;8.202;2022-07-23T04:49:13;14.60;99.90
41060;DHT22;26811;53.160;8.202;2022-07-23T04:54:13;16.00;99.90
41060;DHT22;26811;53.160;8.202;2022-07-23T04:59:14;18.20;99.90
41060;DHT22;26811;53.160;8.202;2022-07-23T05:04:14;18.20;99.90
41060;DHT22;26811;53.160;8.202;2022-07-23T05:09:15;17.80;99.90
41060;DHT22;26811;53.160;8.202;2022-07-23T05:14:15;17.60;99.90
41060;DHT22;26811;53.160;8.202;2022-07-23T05:19:16;17.30;99.90
41060;DHT22;26811;53.160;8.202;2022-07-23T05:24:16;17.20;99.90
41060;DHT22;26811;53.160;8.202;2022-07-23T05:29:17;17.40;99.90
41060;DHT22;26811;53.160;8.202;2022-07-23T05:34:17;17.40;99.90
41060;DHT22;26811;53.160;8.202;2022-07-23T05:39:18;17.60;99.90
41060;DHT22;26811;53.160;8.202;2022-07-23T05:44:19;17.80;99.90
41060;DHT22;26811;53.160;8.202;2022-07-23T05:49:21;19.50;99.90
41060;DHT22;26811;53.160;8.202;2022-07-23T05:54:21;22.10;99.90
41060;DHT22;26811;53.160;8.202;2022-07-23T05:59:22;24.60;99.90
41060;DHT22;26811;53.160;8.202;2022-07-23T06:04:22;25.30;98.40
41060;DHT22;26811;53.160;8.202;2022-07-23T06:09:23;24.80;98.10
41060;DHT22;26811;53.160;8.202;2022-07-23T06:14:23;23.50;99.70
41060;DHT22;26811;53.160;8.202;2022-07-23T06:19:24;21.90;99.90
41060;DHT22;26811;53.160;8.202;2022-07-23T06:24:24;20.50;99.90
41060;DHT22;26811;53.160;8.202;2022-07-23T06:29:25;19.70;99.90
41060;DHT22;26811;53.160;8.202;2022-07-23T06:34:26;19.10;99.90
41060;DHT22;26811;53.160;8.202;2022-07-23T06:39:26;18.50;99.90
41060;DHT22;26811;53.160;8.202;2022-07-23T06:44:27;18.30;99.90
41060;DHT22;26811;53.160;8.202;2022-07-23T06:49:27;18.10;99.90
41060;DHT22;26811;53.160;8.202;2022-07-23T06:54:28;17.90;99.90
41060;DHT22;26811;53.160;8.202;2022-07-23T06:59:29;17.70;99.90
41060;DHT22;26811;53.160;8.202;2022-07-23T07:04:29;17.80;99.90
41060;DHT22;26811;53.160;8.202;2022-07-23T07:09:30;17.80;99.90
41060;DHT22;26811;53.160;8.202;2022-07-23T07:14:30;17.70;99.90
41060;DHT22;26811;53.160;8.202;2022-07-23T07:19:31;17.50;99.90
41060;DHT22;26811;53.160;8.202;2022-07-23T07:24:31;17.30;99.90
41060;DHT22;26811;53.160;8.202;2022-07-23T07:29:32;17.00;99.90
41060;DHT22;26811;53.160;8.202;2022-07-23T07:34:32;17.00;99.90
41060;DHT22;26811;53.160;8.202;2022-07-23T07:39:33;17.20;99.90
41060;DHT22;26811;53.160;8.202;2022-07-23T07:44:34;17.50;99.90
41060;DHT22;26811;53.160;8.202;2022-07-23T07:49:34;18.00;99.90
41060;DHT22;26811;53.160;8.202;2022-07-23T07:54:35;18.30;99.90
41060;DHT22;26811;53.160;8.202;2022-07-23T07:59:35;18.30;99.90
41060;DHT22;26811;53.160;8.202;2022-07-23T08:04:36;18.10;99.90
41060;DHT22;26811;53.160;8.202;2022-07-23T08:09:37;18.10;99.90
41060;DHT22;26811;53.160;8.202;2022-07-23T08:14:37;18.50;99.90
41060;DHT22;26811;53.160;8.202;2022-07-23T08:19:38;19.00;99.90
41060;DHT22;26811;53.160;8.202;2022-07-23T08:24:39;19.30;99.90
41060;DHT22;26811;53.160;8.202;2022-07-23T08:29:39;19.70;99.90
41060;DHT22;26811;53.160;8.202;2022-07-23T08:34:40;20.10;99.90
41060;DHT22;26811;53.160;8.202;2022-07-23T08:39:40;20.20;99.90
41060;DHT22;26811;53.160;8.202;2022-07-23T08:44:44;20.60;99.90
41060;DHT22;26811;53.160;8.202;2022-07-23T08:49:46;21.20;99.90
41060;DHT22;26811;53.160;8.202;2022-07-23T08:54:47;21.10;99.90
41060;DHT22;26811;53.160;8.202;2022-07-23T08:59:48;21.30;99.90
41060;DHT22;26811;53.160;8.202;2022-07-23T09:04:48;21.30;99.90
41060;DHT22;26811;53.160;8.202;2022-07-23T09:10:08;22.20;99.90
41060;DHT22;26811;53.160;8.202;2022-07-23T09:15:09;22.70;99.90
41060;DHT22;26811;53.160;8.202;2022-07-23T09:20:15;23.70;99.60
41060;DHT22;26811;53.160;8.202;2022-07-23T09:25:18;23.20;98.80
41060;DHT22;26811;53.160;8.202;2022-07-23T09:30:26;22.10;99.90
41060;DHT22;26811;53.160;8.202;2022-07-23T09:41:09;21.90;99.90
41060;DHT22;26811;53.160;8.202;2022-07-23T09:46:36;22.10;99.90
41060;DHT22;26811;53.160;8.202;2022-07-23T09:51:47;22.40;99.90
41060;DHT22;26811;53.160;8.202;2022-07-23T09:56:48;23.50;99.90
41060;DHT22;26811;53.160;8.202;2022-07-23T10:01:48;23.80;99.60
41060;DHT22;26811;53.160;8.202;2022-07-23T10:06:53;23.70;98.00
41060;DHT22;26811;53.160;8.202;2022-07-23T10:12:00;23.10;99.30
41060;DHT22;26811;53.160;8.202;2022-07-23T10:17:06;22.80;99.60
41060;DHT22;26811;53.160;8.202;2022-07-23T10:22:11;22.70;99.10
41060;DHT22;26811;53.160;8.202;2022-07-23T10:27:31;22.70;99.90
41060;DHT22;26811;53.160;8.202;2022-07-23T10:37:51;23.50;98.00
41060;DHT22;26811;53.160;8.202;2022-07-23T10:42:58;23.70;97.70
41060;DHT22;26811;53.160;8.202;2022-07-23T10:53:15;24.10;98.80
41060;DHT22;26811;53.160;8.202;2022-07-23T10:58:19;24.00;96.50
41060;DHT22;26811;53.160;8.202;2022-07-23T11:03:32;23.30;96.10
41060;DHT22;26811;53.160;8.202;2022-07-23T11:08:33;23.00;97.80
41060;DHT22;26811;53.160;8.202;2022-07-23T11:13:38;23.40;97.90
41060;DHT22;26811;53.160;8.202;2022-07-23T11:39:40;23.60;95.60
41060;DHT22;26811;53.160;8.202;2022-07-23T11:44:41;23.80;93.80
41060;DHT22;26811;53.160;8.202;2022-07-23T11:49:58;23.90;95.70
41060;DHT22;26811;53.160;8.202;2022-07-23T11:55:05;24.50;93.10
41060;DHT22;26811;53.160;8.202;2022-07-23T12:00:08;24.10;93.70
41060;DHT22;26811;53.160;8.202;2022-07-23T12:05:12;23.60;94.50
41060;DHT22;26811;53.160;8.202;2022-07-23T12:10:14;23.60;94.90
41060;DHT22;26811;53.160;8.202;2022-07-23T12:15:15;23.30;94.20
41060;DHT22;26811;53.160;8.202;2022-07-23T12:20:21;23.00;94.90
41060;DHT22;26811;53.160;8.202;2022-07-23T12:25:25;22.90;96.00
41060;DHT22;26811;53.160;8.202;2022-07-23T12:30:28;23.40;94.50
41060;DHT22;26811;53.160;8.202;2022-07-23T12:35:45;23.90;94.60
41060;DHT22;26811;53.160;8.202;2022-07-23T12:40:55;24.10;93.70
41060;DHT22;26811;53.160;8.202;2022-07-23T12:45:57;24.60;94.40
41060;DHT22;26811;53.160;8.202;2022-07-23T12:51:05;24.20;92.80
41060;DHT22;26811;53.160;8.202;2022-07-23T12:56:21;23.70;94.10
41060;DHT22;26811;53.160;8.202;2022-07-23T13:06:22;24.00;95.20
41060;DHT22;26811;53.160;8.202;2022-07-23T13:11:23;24.10;93.50
41060;DHT22;26811;53.160;8.202;2022-07-23T13:16:24;24.10;92.70
41060;DHT22;26811;53.160;8.202;2022-07-23T13:21:25;23.80;93.70
41060;DHT22;26811;53.160;8.202;2022-07-23T13:26:27;23.70;93.80
41060;DHT22;26811;53.160;8.202;2022-07-23T13:31:27;23.60;94.30
41060;DHT22;26811;53.160;8.202;2022-07-23T13:36:28;23.20;94.80
41060;DHT22;26811;53.160;8.202;2022-07-23T13:41:28;22.90;95.20
41060;DHT22;26811;53.160;8.202;2022-07-23T13:46:29;22.80;95.30
41060;DHT22;26811;53.160;8.202;2022-07-23T13:51:30;22.80;94.00
41060;DHT22;26811;53.160;8.202;2022-07-23T13:56:31;23.10;94.40
41060;DHT22;26811;53.160;8.202;2022-07-23T14:01:31;23.40;94.70
41060;DHT22;26811;53.160;8.202;2022-07-23T14:06:32;23.30;94.20
41060;DHT22;26811;53.160;8.202;2022-07-23T14:11:32;23.20;95.00
41060;DHT22;26811;53.160;8.202;2022-07-23T14:16:33;23.40;95.00
41060;DHT22;26811;53.160;8.202;2022-07-23T14:21:34;23.50;94.80
41060;DHT22;26811;53.160;8.202;2022-07-23T14:26:34;23.30;94.00
41060;DHT22;26811;53.160;8.202;2022-07-23T14:31:35;23.30;94.30
41060;DHT22;26811;53.160;8.202;2022-07-23T14:36:36;23.70;94.60
41060;DHT22;26811;53.160;8.202;2022-07-23T14:41:36;23.90;93.40
41060;DHT22;26811;53.160;8.202;2022-07-23T14:46:37;24.10;93.20
41060;DHT22;26811;53.160;8.202;2022-07-23T14:51:37;23.90;93.90
41060;DHT22;26811;53.160;8.202;2022-07-23T14:56:38;23.80;94.10
41060;DHT22;26811;53.160;8.202;2022-07-23T15:01:39;23.40;93.90
41060;DHT22;26811;53.160;8.202;2022-07-23T15:06:40;22.80;94.50
41060;DHT22;26811;53.160;8.202;2022-07-23T15:11:41;22.50;95.60
41060;DHT22;26811;53.160;8.202;2022-07-23T15:16:41;22.60;96.40
41060;DHT22;26811;53.160;8.202;2022-07-23T15:21:42;22.50;95.20
41060;DHT22;26811;53.160;8.202;2022-07-23T15:26:42;22.70;95.30
41060;DHT22;26811;53.160;8.202;2022-07-23T15:31:43;22.50;95.90
41060;DHT22;26811;53.160;8.202;2022-07-23T15:36:43;22.20;96.10
41060;DHT22;26811;53.160;8.202;2022-07-23T15:41:44;22.30;96.50
41060;DHT22;26811;53.160;8.202;2022-07-23T15:46:44;22.50;97.10
41060;DHT22;26811;53.160;8.202;2022-07-23T15:51:45;22.60;95.90
41060;DHT22;26811;53.160;8.202;2022-07-23T15:56:46;22.40;96.60
41060;DHT22;26811;53.160;8.202;2022-07-23T16:01:47;22.50;97.00
41060;DHT22;26811;53.160;8.202;2022-07-23T16:06:48;22.50;96.70
41060;DHT22;26811;53.160;8.202;2022-07-23T16:11:48;22.80;96.90
41060;DHT22;26811;53.160;8.202;2022-07-23T16:16:49;22.60;96.00
41060;DHT22;26811;53.160;8.202;2022-07-23T16:21:50;22.40;96.50
41060;DHT22;26811;53.160;8.202;2022-07-23T16:26:50;22.30;97.30
41060;DHT22;26811;53.160;8.202;2022-07-23T16:31:51;22.20;96.90
41060;DHT22;26811;53.160;8.202;2022-07-23T16:36:51;22.10;96.70
41060;DHT22;26811;53.160;8.202;2022-07-23T16:41:52;22.10;96.60
41060;DHT22;26811;53.160;8.202;2022-07-23T16:46:52;21.90;96.30
41060;DHT22;26811;53.160;8.202;2022-07-23T16:51:53;21.80;97.30
41060;DHT22;26811;53.160;8.202;2022-07-23T16:56:54;21.70;97.40
41060;DHT22;26811;53.160;8.202;2022-07-23T17:01:54;21.60;97.90
41060;DHT22;26811;53.160;8.202;2022-07-23T17:06:55;21.60;98.00
41060;DHT22;26811;53.160;8.202;2022-07-23T17:11:57;21.50;97.60
41060;DHT22;26811;53.160;8.202;2022-07-23T17:16:58;21.30;97.70
41060;DHT22;26811;53.160;8.202;2022-07-23T17:21:59;21.20;97.80
41060;DHT22;26811;53.160;8.202;2022-07-23T17:26:59;21.10;98.40
41060;DHT22;26811;53.160;8.202;2022-07-23T17:32:00;20.80;98.70
41060;DHT22;26811;53.160;8.202;2022-07-23T17:37:00;20.80;99.10
41060;DHT22;26811;53.160;8.202;2022-07-23T17:42:01;20.70;99.40
41060;DHT22;26811;53.160;8.202;2022-07-23T17:47:02;20.50;99.90
41060;DHT22;26811;53.160;8.202;2022-07-23T17:52:04;20.40;99.90
41060;DHT22;26811;53.160;8.202;2022-07-23T17:57:04;20.30;99.90
41060;DHT22;26811;53.160;8.202;2022-07-23T18:02:05;20.10;99.90
41060;DHT22;26811;53.160;8.202;2022-07-23T18:07:07;20.00;99.90
41060;DHT22;26811;53.160;8.202;2022-07-23T18:12:07;19.90;99.90
41060;DHT22;26811;53.160;8.202;2022-07-23T18:17:08;19.80;99.90
41060;DHT22;26811;53.160;8.202;2022-07-23T18:22:09;19.70;99.90
41060;DHT22;26811;53.160;8.202;2022-07-23T18:27:09;19.70;99.90
41060;DHT22;26811;53.160;8.202;2022-07-23T18:32:10;19.60;99.90
41060;DHT22;26811;53.160;8.202;2022-07-23T18:37:10;19.50;99.90
41060;DHT22;26811;53.160;8.202;2022-07-23T18:42:11;19.40;99.90
41060;DHT22;26811;53.160;8.202;2022-07-23T18:47:12;19.40;99.90
41060;DHT22;26811;53.160;8.202;2022-07-23T18:52:12;19.20;99.90
41060;DHT22;26811;53.160;8.202;2022-07-23T18:57:13;19.20;99.90
41060;DHT22;26811;53.160;8.202;2022-07-23T19:02:13;19.10;99.90
41060;DHT22;26811;53.160;8.202;2022-07-23T19:07:14;19.00;99.90
41060;DHT22;26811;53.160;8.202;2022-07-23T19:12:15;18.80;99.90
41060;DHT22;26811;53.160;8.202;2022-07-23T19:17:16;18.70;99.90
41060;DHT22;26811;53.160;8.202;2022-07-23T19:22:16;18.60;99.90
41060;DHT22;26811;53.160;8.202;2022-07-23T19:27:17;18.50;99.90
41060;DHT22;26811;53.160;8.202;2022-07-23T19:32:17;18.40;99.90
41060;DHT22;26811;53.160;8.202;2022-07-23T19:37:18;18.30;99.90
41060;DHT22;26811;53.160;8.202;2022-07-23T19:42:20;18.20;99.90
41060;DHT22;26811;53.160;8.202;2022-07-23T19:47:21;18.00;99.90
41060;DHT22;26811;53.160;8.202;2022-07-23T19:52:21;17.90;99.90
41060;DHT22;26811;53.160;8.202;2022-07-23T19:57:22;17.80;99.90
41060;DHT22;26811;53.160;8.202;2022-07-23T20:02:22;17.60;99.90
41060;DHT22;26811;53.160;8.202;2022-07-23T20:07:23;17.50;99.90
41060;DHT22;26811;53.160;8.202;2022-07-23T20:12:24;17.30;99.90
41060;DHT22;26811;53.160;8.202;2022-07-23T20:17:24;17.20;99.90
41060;DHT22;26811;53.160;8.202;2022-07-23T20:22:25;17.10;99.90
41060;DHT22;26811;53.160;8.202;2022-07-23T20:27:25;17.00;99.90
41060;DHT22;26811;53.160;8.202;2022-07-23T20:32:26;16.90;99.90
41060;DHT22;26811;53.160;8.202;2022-07-23T20:37:26;16.80;99.90
41060;DHT22;26811;53.160;8.202;2022-07-23T20:42:28;16.70;99.90
41060;DHT22;26811;53.160;8.202;2022-07-23T20:47:28;16.60;99.90
41060;DHT22;26811;53.160;8.202;2022-07-23T20:52:29;16.50;99.90
41060;DHT22;26811;53.160;8.202;2022-07-23T20:57:29;16.50;99.90
41060;DHT22;26811;53.160;8.202;2022-07-23T21:02:30;16.40;99.90
41060;DHT22;26811;53.160;8.202;2022-07-23T21:07:31;16.40;99.90
41060;DHT22;26811;53.160;8.202;2022-07-23T21:12:31;16.30;99.90
41060;DHT22;26811;53.160;8.202;2022-07-23T21:17:32;16.30;99.90
41060;DHT22;26811;53.160;8.202;2022-07-23T21:22:32;16.20;99.90
41060;DHT22;26811;53.160;8.202;2022-07-23T21:27:33;16.20;99.90
41060;DHT22;26811;53.160;8.202;2022-07-23T21:32:34;16.20;99.90
41060;DHT22;26811;53.160;8.202;2022-07-23T21:37:36;16.10;99.90
41060;DHT22;26811;53.160;8.202;2022-07-23T21:42:37;16.10;99.90
41060;DHT22;26811;53.160;8.202;2022-07-23T21:47:37;16.10;99.90
41060;DHT22;26811;53.160;8.202;2022-07-23T21:52:38;15.90;99.90
41060;DHT22;26811;53.160;8.202;2022-07-23T21:57:39;15.90;99.90
41060;DHT22;26811;53.160;8.202;2022-07-23T22:02:40;15.80;99.90
41060;DHT22;26811;53.160;8.202;2022-07-23T22:07:40;15.80;99.90
41060;DHT22;26811;53.160;8.202;2022-07-23T22:12:41;15.70;99.90
41060;DHT22;26811;53.160;8.202;2022-07-23T22:17:42;15.70;99.90
41060;DHT22;26811;53.160;8.202;2022-07-23T22:22:45;15.70;99.90
41060;DHT22;26811;53.160;8.202;2022-07-23T22:27:46;15.60;99.90
41060;DHT22;26811;53.160;8.202;2022-07-23T22:32:47;15.50;99.90
41060;DHT22;26811;53.160;8.202;2022-07-23T22:37:48;15.40;99.90
41060;DHT22;26811;53.160;8.202;2022-07-23T22:42:48;15.40;99.90
41060;DHT22;26811;53.160;8.202;2022-07-23T22:47:49;15.30;99.90
41060;DHT22;26811;53.160;8.202;2022-07-23T22:52:49;15.30;99.90
41060;DHT22;26811;53.160;8.202;2022-07-23T22:57:50;15.30;99.90
41060;DHT22;26811;53.160;8.202;2022-07-23T23:02:50;15.20;99.90
41060;DHT22;26811;53.160;8.202;2022-07-23T23:07:51;15.10;99.90
41060;DHT22;26811;53.160;8.202;2022-07-23T23:12:52;15.10;99.90
41060;DHT22;26811;53.160;8.202;2022-07-23T23:17:53;15.10;99.90
41060;DHT22;26811;53.160;8.202;2022-07-23T23:22:53;15.10;99.90
41060;DHT22;26811;53.160;8.202;2022-07-23T23:27:54;15.00;99.90
41060;DHT22;26811;53.160;8.202;2022-07-23T23:32:54;15.00;99.90
41060;DHT22;26811;53.160;8.202;2022-07-23T23:37:55;14.90;99.90
41060;DHT22;26811;53.160;8.202;2022-07-23T23:42:56;15.00;99.90
41060;DHT22;26811;53.160;8.202;2022-07-23T23:47:56;15.00;99.90
41060;DHT22;26811;53.160;8.202;2022-07-23T23:52:57;15.00;99.90
41060;DHT22;26811;53.160;8.202;2022-07-23T23:57:57;14.90;99.90
